createdAt,value
2022-08-21T00:00:21.453Z,99.90
2022-08-21T00:02:50.682Z,99.90
2022-08-21T00:05:17.975Z,99.90
2022-08-21T00:07:45.056Z,99.90
2022-08-21T00:10:12.101Z,99.90
2022-08-21T00:12:38.975Z,99.90
2022-08-21T00:15:08.558Z,99.90
2022-08-21T00:17:35.950Z,99.90
2022-08-21T00:20:05.098Z,99.90
2022-08-21T00:22:31.939Z,99.90
2022-08-21T00:24:59.221Z,99.90
2022-08-21T00:27:26.533Z,99.90
2022-08-21T00:29:54.861Z,99.90
2022-08-21T00:32:24.942Z,99.90
2022-08-21T00:34:51.863Z,99.90
2022-08-21T00:37:18.758Z,99.90
2022-08-21T00:39:45.606Z,99.90
2022-08-21T00:42:16.075Z,99.90
2022-08-21T00:44:44.318Z,99.90
2022-08-21T00:47:11.471Z,99.90
2022-08-21T00:49:39.139Z,99.90
2022-08-21T00:52:08.109Z,99.90
2022-08-21T00:54:35.364Z,99.90
2022-08-21T00:57:05.765Z,99.90
2022-08-21T00:59:35.056Z,99.90
2022-08-21T01:02:02.147Z,99.90
2022-08-21T01:04:29.008Z,99.90
2022-08-21T01:06:56.033Z,99.90
2022-08-21T01:09:23.099Z,99.90
2022-08-21T01:11:50.135Z,99.90
2022-08-21T01:14:18.303Z,99.90
2022-08-21T01:16:46.881Z,99.90
2022-08-21T01:19:15.179Z,99.90
2022-08-21T01:21:43.028Z,99.90
2022-08-21T01:24:11.372Z,99.90
2022-08-21T01:26:38.171Z,99.90
2022-08-21T01:29:23.579Z,99.90
2022-08-21T01:31:50.582Z,99.90
2022-08-21T01:34:17.395Z,99.90
2022-08-21T01:36:45.168Z,99.90
2022-08-21T01:39:13.025Z,99.90
2022-08-21T01:41:39.921Z,99.90
2022-08-21T01:44:06.772Z,99.90
2022-08-21T01:46:33.944Z,99.90
2022-08-21T01:49:00.904Z,99.90
2022-08-21T01:51:27.816Z,99.90
2022-08-21T01:53:54.617Z,99.90
2022-08-21T01:56:21.681Z,99.90
2022-08-21T01:58:48.848Z,99.90
2022-08-21T02:01:15.957Z,99.90
2022-08-21T02:03:43.069Z,99.90
2022-08-21T02:06:14.155Z,99.90
2022-08-21T02:08:41.791Z,99.90
2022-08-21T02:11:08.668Z,99.90
2022-08-21T02:13:35.599Z,99.90
2022-08-21T02:16:02.508Z,99.90
2022-08-21T02:18:29.328Z,99.90
2022-08-21T02:20:56.790Z,99.90
2022-08-21T02:23:27.343Z,99.90
2022-08-21T02:25:56.049Z,99.90
2022-08-21T02:28:22.913Z,99.90
2022-08-21T02:30:50.359Z,99.90
2022-08-21T02:33:17.433Z,99.90
2022-08-21T02:35:44.744Z,99.90
2022-08-21T02:38:13.386Z,99.90
2022-08-21T02:40:43.783Z,99.90
2022-08-21T02:43:16.457Z,99.90
2022-08-21T02:45:44.127Z,99.90
2022-08-21T02:48:12.489Z,99.90
2022-08-21T02:50:42.751Z,99.90
2022-08-21T02:53:10.237Z,99.90
2022-08-21T02:55:37.673Z,99.90
2022-08-21T02:58:06.076Z,99.90
2022-08-21T03:00:33.225Z,99.90
2022-08-21T03:03:00.560Z,99.90
2022-08-21T03:05:28.135Z,99.90
2022-08-21T03:07:55.449Z,99.90
2022-08-21T03:10:22.822Z,99.90
2022-08-21T03:12:50.185Z,99.90
2022-08-21T03:15:18.928Z,99.90
2022-08-21T03:17:46.564Z,99.90
2022-08-21T03:20:15.169Z,99.90
2022-08-21T03:22:42.038Z,99.90
2022-08-21T03:25:13.763Z,99.90
2022-08-21T03:27:40.827Z,99.90
2022-08-21T03:30:10.803Z,99.90
2022-08-21T03:32:37.652Z,99.90
2022-08-21T03:35:05.554Z,99.90
2022-08-21T03:37:33.234Z,99.90
2022-08-21T03:40:00.227Z,99.90
2022-08-21T03:42:27.142Z,99.90
2022-08-21T03:44:53.953Z,99.90
2022-08-21T03:47:20.819Z,99.90
2022-08-21T03:49:47.610Z,99.90
2022-08-21T03:52:14.462Z,99.90
2022-08-21T03:54:42.404Z,99.90
2022-08-21T03:57:10.282Z,99.90
2022-08-21T03:59:38.377Z,99.90
2022-08-21T04:02:05.987Z,99.90
2022-08-21T04:04:33.345Z,99.90
2022-08-21T04:07:00.998Z,99.90
2022-08-21T04:09:28.258Z,99.90
2022-08-21T04:11:55.501Z,99.90
2022-08-21T04:14:22.860Z,99.90
2022-08-21T04:16:49.818Z,99.90
2022-08-21T04:19:16.786Z,99.90
2022-08-21T04:21:43.726Z,99.90
2022-08-21T04:24:11.394Z,99.90
2022-08-21T04:26:39.355Z,99.90
2022-08-21T04:29:07.599Z,99.90
2022-08-21T04:31:40.131Z,99.90
2022-08-21T04:34:07.043Z,99.90
2022-08-21T04:36:34.497Z,99.90
2022-08-21T04:39:01.575Z,99.90
2022-08-21T04:41:31.103Z,99.90
2022-08-21T04:43:57.947Z,99.90
2022-08-21T04:46:24.771Z,99.90
2022-08-21T04:48:51.622Z,99.90
2022-08-21T04:51:26.221Z,99.90
2022-08-21T04:54:00.153Z,99.90
2022-08-21T04:56:37.887Z,99.90
2022-08-21T04:59:06.553Z,99.90
2022-08-21T05:01:35.614Z,99.90
2022-08-21T05:04:05.465Z,99.90
2022-08-21T05:06:35.910Z,99.90
2022-08-21T05:09:02.807Z,99.90
2022-08-21T05:11:31.391Z,99.90
2022-08-21T05:13:58.291Z,99.90
2022-08-21T05:16:30.146Z,99.90
2022-08-21T05:19:04.713Z,99.90
2022-08-21T05:21:31.782Z,99.90
2022-08-21T05:24:00.609Z,99.90
2022-08-21T05:26:28.500Z,99.90
2022-08-21T05:28:55.442Z,99.90
2022-08-21T05:31:24.354Z,99.90
2022-08-21T05:33:51.951Z,99.90
2022-08-21T05:36:19.759Z,99.90
2022-08-21T05:38:46.944Z,99.90
2022-08-21T05:41:13.806Z,99.90
2022-08-21T05:43:40.870Z,99.90
2022-08-21T05:46:08.297Z,99.90
2022-08-21T05:48:36.174Z,99.90
2022-08-21T05:51:07.030Z,99.90
2022-08-21T05:53:33.916Z,99.90
2022-08-21T05:56:00.736Z,99.90
2022-08-21T05:58:27.524Z,99.90
2022-08-21T06:00:54.451Z,99.90
2022-08-21T06:03:24.035Z,99.90
2022-08-21T06:05:50.939Z,99.90
2022-08-21T06:08:18.574Z,99.90
2022-08-21T06:10:46.270Z,99.90
2022-08-21T06:13:13.620Z,99.90
2022-08-21T06:15:40.476Z,99.90
2022-08-21T06:18:07.579Z,99.90
2022-08-21T06:20:35.005Z,99.90
2022-08-21T06:23:02.432Z,99.90
2022-08-21T06:25:30.117Z,99.90
2022-08-21T06:28:07.034Z,99.90
2022-08-21T06:30:34.046Z,99.90
2022-08-21T06:33:01.203Z,99.90
2022-08-21T06:35:30.055Z,99.90
2022-08-21T06:37:58.110Z,99.90
2022-08-21T06:40:25.577Z,99.90
2022-08-21T06:42:52.460Z,99.90
2022-08-21T06:45:19.287Z,99.90
2022-08-21T06:47:46.136Z,99.90
2022-08-21T06:50:14.050Z,99.90
2022-08-21T06:52:41.218Z,99.90
2022-08-21T06:55:09.694Z,99.90
2022-08-21T06:57:36.708Z,99.90
2022-08-21T07:00:07.914Z,99.90
2022-08-21T07:02:34.846Z,99.90
2022-08-21T07:05:02.086Z,99.90
2022-08-21T07:07:45.414Z,99.90
2022-08-21T07:10:22.265Z,99.90
2022-08-21T07:12:50.797Z,99.90
2022-08-21T07:15:19.350Z,99.90
2022-08-21T07:17:46.230Z,99.90
2022-08-21T07:20:13.343Z,99.90
2022-08-21T07:22:41.515Z,99.90
2022-08-21T07:25:08.665Z,99.90
2022-08-21T07:27:35.557Z,99.90
2022-08-21T07:30:02.585Z,99.90
2022-08-21T07:32:29.671Z,99.90
2022-08-21T07:34:56.520Z,99.90
2022-08-21T07:37:23.394Z,99.90
2022-08-21T07:39:50.550Z,99.90
2022-08-21T07:42:18.178Z,99.90
2022-08-21T07:44:44.979Z,99.90
2022-08-21T07:47:12.012Z,99.90
2022-08-21T07:49:39.282Z,99.90
2022-08-21T07:52:06.290Z,99.90
2022-08-21T07:54:33.433Z,99.90
2022-08-21T07:57:00.814Z,99.90
2022-08-21T07:59:28.270Z,99.90
2022-08-21T08:01:55.049Z,99.90
2022-08-21T08:04:26.247Z,99.90
2022-08-21T08:06:55.165Z,99.90
2022-08-21T08:09:22.089Z,99.90
2022-08-21T08:11:48.933Z,99.90
2022-08-21T08:14:16.728Z,99.90
2022-08-21T08:16:43.690Z,99.90
2022-08-21T08:19:10.513Z,99.90
2022-08-21T08:21:38.627Z,99.90
2022-08-21T08:24:18.920Z,99.90
2022-08-21T08:26:47.048Z,99.90
2022-08-21T08:29:21.738Z,99.90
2022-08-21T08:31:48.628Z,99.90
2022-08-21T08:34:25.142Z,99.90
2022-08-21T08:36:52.794Z,99.90
2022-08-21T08:39:27.074Z,99.90
2022-08-21T08:42:33.686Z,99.90
2022-08-21T08:44:56.683Z,99.90
2022-08-21T08:47:25.407Z,99.90
2022-08-21T08:50:12.010Z,99.90
2022-08-21T08:52:44.277Z,99.90
2022-08-21T08:55:15.323Z,99.90
2022-08-21T08:57:45.033Z,99.90
2022-08-21T09:00:17.718Z,99.90
2022-08-21T09:02:47.873Z,99.90
2022-08-21T09:05:23.427Z,99.90
2022-08-21T09:07:50.180Z,99.90
2022-08-21T09:10:30.141Z,99.90
2022-08-21T09:12:57.151Z,99.90
2022-08-21T09:15:43.432Z,99.90
2022-08-21T09:18:20.695Z,99.90
2022-08-21T09:21:02.960Z,99.90
2022-08-21T09:23:42.381Z,99.90
2022-08-21T09:26:16.508Z,99.90
2022-08-21T09:28:44.139Z,99.90
2022-08-21T09:31:31.193Z,99.90
2022-08-21T09:33:58.716Z,99.90
2022-08-21T09:36:27.168Z,99.90
2022-08-21T09:38:55.330Z,99.90
2022-08-21T09:41:27.808Z,99.90
2022-08-21T09:43:55.190Z,99.90
2022-08-21T09:46:23.961Z,99.90
2022-08-21T09:48:52.166Z,99.90
2022-08-21T09:51:20.776Z,99.90
2022-08-21T09:53:49.991Z,99.90
2022-08-21T09:56:45.514Z,99.90
2022-08-21T09:59:19.939Z,99.90
2022-08-21T10:01:48.684Z,99.90
2022-08-21T10:04:16.339Z,99.90
2022-08-21T10:06:43.227Z,99.90
2022-08-21T10:09:19.883Z,99.90
2022-08-21T10:11:57.408Z,99.90
2022-08-21T10:14:40.065Z,99.90
2022-08-21T10:17:19.413Z,99.90
2022-08-21T10:19:53.764Z,99.90
2022-08-21T10:22:20.538Z,99.90
2022-08-21T10:25:06.151Z,99.90
2022-08-21T10:27:33.089Z,99.90
2022-08-21T10:30:06.538Z,99.90
2022-08-21T10:32:33.374Z,99.90
2022-08-21T10:35:09.047Z,99.90
2022-08-21T10:37:45.083Z,99.90
2022-08-21T10:40:14.811Z,99.90
2022-08-21T10:43:10.975Z,99.90
2022-08-21T10:45:49.418Z,99.90
2022-08-21T10:48:28.929Z,99.90
2022-08-21T10:50:59.019Z,99.90
2022-08-21T10:53:32.965Z,99.90
2022-08-21T10:56:01.601Z,99.90
2022-08-21T10:58:46.600Z,99.90
2022-08-21T11:01:17.125Z,99.90
2022-08-21T11:03:51.961Z,99.90
2022-08-21T11:06:21.872Z,99.90
2022-08-21T11:08:55.497Z,99.90
2022-08-21T11:11:36.220Z,99.90
2022-08-21T11:14:09.027Z,99.90
2022-08-21T11:16:42.367Z,99.90
2022-08-21T11:19:14.982Z,99.90
2022-08-21T11:21:48.445Z,99.90
2022-08-21T11:24:24.337Z,99.90
2022-08-21T11:26:53.888Z,99.90
2022-08-21T11:29:37.513Z,99.90
2022-08-21T11:32:22.406Z,99.90
2022-08-21T11:35:11.531Z,99.90
2022-08-21T11:38:03.042Z,99.90
2022-08-21T11:40:42.188Z,99.90
2022-08-21T11:43:27.441Z,99.90
2022-08-21T11:45:55.615Z,99.90
2022-08-21T11:48:41.196Z,99.90
2022-08-21T11:51:13.883Z,99.90
2022-08-21T11:54:03.778Z,99.90
2022-08-21T11:56:37.036Z,99.90
2022-08-21T11:59:07.750Z,99.90
2022-08-21T12:01:38.176Z,99.90
2022-08-21T12:04:08.942Z,99.90
2022-08-21T12:06:37.569Z,99.90
2022-08-21T12:09:09.645Z,99.90
2022-08-21T12:11:49.957Z,99.90
2022-08-21T12:14:18.480Z,99.90
2022-08-21T12:16:50.113Z,99.90
2022-08-21T12:19:26.020Z,99.90
2022-08-21T12:21:58.633Z,99.90
2022-08-21T12:24:28.494Z,99.90
2022-08-21T12:26:56.495Z,99.90
2022-08-21T12:29:31.137Z,99.90
2022-08-21T12:32:02.863Z,99.90
2022-08-21T12:34:41.175Z,99.90
2022-08-21T12:37:19.678Z,99.90
2022-08-21T12:39:48.870Z,99.90
2022-08-21T12:42:21.541Z,99.90
2022-08-21T12:44:52.606Z,99.90
2022-08-21T12:47:32.047Z,99.90
2022-08-21T12:50:08.374Z,99.90
2022-08-21T12:52:39.610Z,99.90
2022-08-21T12:55:07.215Z,99.90
2022-08-21T12:57:37.079Z,99.90
2022-08-21T13:00:07.919Z,99.90
2022-08-21T13:02:39.206Z,99.90
2022-08-21T13:05:07.576Z,99.90
2022-08-21T13:07:36.293Z,99.90
2022-08-21T13:10:08.834Z,99.90
2022-08-21T13:12:36.726Z,99.90
2022-08-21T13:15:09.285Z,99.90
2022-08-21T13:17:38.667Z,99.90
2022-08-21T13:20:07.830Z,99.90
2022-08-21T13:22:41.937Z,99.90
2022-08-21T13:25:16.612Z,99.90
2022-08-21T13:27:44.415Z,99.90
2022-08-21T13:30:19.231Z,99.90
2022-08-21T13:32:49.723Z,99.90
2022-08-21T13:35:21.833Z,99.90
2022-08-21T13:37:51.234Z,99.90
2022-08-21T13:40:24.626Z,99.90
2022-08-21T13:42:51.662Z,99.90
2022-08-21T13:45:23.381Z,99.90
2022-08-21T13:47:50.416Z,99.90
2022-08-21T13:50:19.301Z,99.90
2022-08-21T13:52:48.412Z,99.50
2022-08-21T13:55:16.990Z,99.30
2022-08-21T13:57:43.894Z,98.90
2022-08-21T14:00:21.526Z,99.70
2022-08-21T14:02:50.986Z,97.60
2022-08-21T14:05:21.969Z,97.70
2022-08-21T14:07:51.226Z,98.00
2022-08-21T14:10:22.598Z,98.40
2022-08-21T14:12:51.936Z,98.90
2022-08-21T14:15:19.970Z,97.90
2022-08-21T14:17:47.051Z,97.90
2022-08-21T14:20:27.479Z,97.90
2022-08-21T14:22:54.564Z,98.70
2022-08-21T14:25:21.373Z,98.30
2022-08-21T14:28:09.681Z,97.00
2022-08-21T14:30:38.297Z,96.50
2022-08-21T14:33:08.728Z,96.10
2022-08-21T14:35:35.643Z,95.70
2022-08-21T14:38:02.440Z,95.90
2022-08-21T14:40:29.388Z,94.80
2022-08-21T14:42:56.253Z,93.10
2022-08-21T14:45:23.858Z,94.60
2022-08-21T14:47:54.761Z,94.60
2022-08-21T14:50:21.591Z,94.20
2022-08-21T14:52:48.543Z,94.20
2022-08-21T14:55:18.068Z,92.80
2022-08-21T14:57:49.707Z,92.40
2022-08-21T15:00:18.745Z,92.60
2022-08-21T15:02:45.543Z,93.10
2022-08-21T15:05:12.929Z,93.20
2022-08-21T15:07:40.956Z,92.80
2022-08-21T15:10:08.113Z,93.50
2022-08-21T15:12:36.914Z,93.10
2022-08-21T15:15:05.857Z,93.60
2022-08-21T15:17:32.766Z,92.80
2022-08-21T15:19:59.608Z,93.10
2022-08-21T15:22:28.559Z,93.80
2022-08-21T15:24:55.512Z,94.00
2022-08-21T15:27:22.497Z,94.40
2022-08-21T15:29:49.403Z,94.60
2022-08-21T15:32:24.061Z,94.80
2022-08-21T15:34:54.457Z,95.10
2022-08-21T15:37:22.049Z,95.50
2022-08-21T15:39:54.107Z,95.70
2022-08-21T15:42:21.573Z,95.60
2022-08-21T15:44:48.712Z,95.50
2022-08-21T15:47:17.767Z,96.30
2022-08-21T15:49:46.351Z,96.10
2022-08-21T15:52:20.074Z,96.10
2022-08-21T15:54:47.043Z,96.00
2022-08-21T15:57:22.102Z,96.00
2022-08-21T15:59:51.571Z,96.00
2022-08-21T16:02:20.107Z,96.00
2022-08-21T16:04:47.031Z,96.10
2022-08-21T16:07:14.295Z,96.40
2022-08-21T16:09:41.092Z,96.50
2022-08-21T16:12:08.285Z,97.20
2022-08-21T16:14:37.279Z,97.50
2022-08-21T16:17:07.543Z,97.70
2022-08-21T16:19:34.742Z,97.80
2022-08-21T16:22:02.027Z,97.00
2022-08-21T16:24:28.902Z,97.50
2022-08-21T16:26:57.922Z,97.90
2022-08-21T16:29:26.311Z,99.90
2022-08-21T16:31:54.037Z,99.90
2022-08-21T16:34:21.018Z,99.90
2022-08-21T16:36:48.153Z,99.90
2022-08-21T16:39:15.056Z,99.90
2022-08-21T16:41:41.876Z,99.90
2022-08-21T16:44:09.781Z,99.90
2022-08-21T16:46:39.643Z,99.90
2022-08-21T16:49:07.866Z,99.90
2022-08-21T16:51:34.694Z,99.90
2022-08-21T16:54:01.588Z,99.90
2022-08-21T16:56:28.702Z,99.90
2022-08-21T16:58:57.262Z,99.90
2022-08-21T17:01:26.565Z,99.90
2022-08-21T17:03:54.024Z,99.90
2022-08-21T17:06:23.647Z,99.90
2022-08-21T17:08:59.003Z,99.90
2022-08-21T17:11:35.378Z,99.90
2022-08-21T17:14:06.397Z,99.90
2022-08-21T17:16:33.209Z,99.90
2022-08-21T17:19:00.097Z,99.90
2022-08-21T17:21:27.155Z,99.90
2022-08-21T17:23:53.963Z,99.90
2022-08-21T17:26:20.793Z,99.90
2022-08-21T17:28:49.322Z,99.90
2022-08-21T17:31:17.893Z,99.90
2022-08-21T17:33:50.631Z,99.90
2022-08-21T17:36:18.150Z,99.90
2022-08-21T17:38:45.192Z,99.90
2022-08-21T17:41:12.613Z,99.90
2022-08-21T17:43:39.783Z,99.90
2022-08-21T17:46:06.807Z,99.90
2022-08-21T17:48:34.289Z,99.90
2022-08-21T17:51:02.454Z,99.90
2022-08-21T17:53:29.402Z,99.90
2022-08-21T17:55:56.365Z,99.90
2022-08-21T17:58:23.366Z,99.90
2022-08-21T18:00:50.531Z,99.90
2022-08-21T18:03:20.201Z,99.90
2022-08-21T18:05:48.567Z,99.90
2022-08-21T18:08:15.512Z,99.90
2022-08-21T18:10:43.644Z,99.90
2022-08-21T18:13:12.589Z,99.90
2022-08-21T18:15:39.775Z,99.90
2022-08-21T18:18:06.985Z,99.90
2022-08-21T18:20:33.888Z,99.90
2022-08-21T18:23:01.186Z,99.90
2022-08-21T18:25:29.023Z,99.90
2022-08-21T18:27:56.249Z,99.90
2022-08-21T18:30:23.906Z,99.90
2022-08-21T18:32:52.379Z,99.90
2022-08-21T18:35:19.458Z,99.90
2022-08-21T18:37:46.285Z,99.90
2022-08-21T18:40:13.512Z,99.90
2022-08-21T18:42:41.840Z,99.90
2022-08-21T18:45:16.420Z,99.90
2022-08-21T18:47:44.984Z,99.90
2022-08-21T18:50:13.057Z,99.90
2022-08-21T18:52:51.400Z,99.90
2022-08-21T18:55:20.974Z,99.90
2022-08-21T18:57:47.771Z,99.90
2022-08-21T19:00:18.053Z,99.90
2022-08-21T19:02:45.451Z,99.90
2022-08-21T19:05:13.844Z,99.90
2022-08-21T19:07:40.670Z,99.90
2022-08-21T19:10:28.420Z,99.90
2022-08-21T19:12:56.618Z,99.90
2022-08-21T19:15:23.494Z,99.90
2022-08-21T19:17:51.293Z,99.90
2022-08-21T19:20:25.551Z,99.90
2022-08-21T19:22:53.826Z,99.90
2022-08-21T19:25:33.545Z,99.90
2022-08-21T19:28:01.765Z,99.90
2022-08-21T19:30:30.881Z,99.90
2022-08-21T19:32:58.011Z,99.90
2022-08-21T19:35:27.091Z,99.90
2022-08-21T19:37:54.108Z,99.90
2022-08-21T19:40:22.264Z,99.90
2022-08-21T19:42:51.662Z,99.90
2022-08-21T19:45:18.703Z,99.90
2022-08-21T19:47:49.747Z,99.90
2022-08-21T19:50:18.111Z,99.90
2022-08-21T19:55:35.426Z,99.90
2022-08-21T19:58:02.884Z,99.90
2022-08-21T20:00:29.735Z,99.90
2022-08-21T20:02:56.570Z,99.90
2022-08-21T20:05:23.368Z,99.90
2022-08-21T20:07:50.321Z,99.90
2022-08-21T20:10:17.289Z,99.90
2022-08-21T20:12:44.565Z,99.90
2022-08-21T20:15:11.511Z,99.90
2022-08-21T20:17:39.135Z,99.90
2022-08-21T20:20:07.524Z,99.90
2022-08-21T20:22:34.380Z,99.90
2022-08-21T20:25:01.152Z,99.90
2022-08-21T20:27:29.543Z,99.90
2022-08-21T20:29:56.615Z,99.90
2022-08-21T20:32:23.441Z,99.90
2022-08-21T20:34:52.112Z,99.90
2022-08-21T20:37:22.192Z,99.90
2022-08-21T20:40:08.218Z,99.90
2022-08-21T20:42:35.063Z,99.90
2022-08-21T20:45:08.212Z,99.90
2022-08-21T20:47:39.113Z,99.90
2022-08-21T20:50:13.006Z,99.90
2022-08-21T20:52:41.322Z,99.90
2022-08-21T20:55:14.339Z,99.90
2022-08-21T20:57:44.394Z,99.90
2022-08-21T21:00:14.886Z,99.90
2022-08-21T21:02:41.705Z,99.90
2022-08-21T21:05:20.499Z,99.90
2022-08-21T21:07:51.707Z,99.90
2022-08-21T21:10:22.437Z,99.90
2022-08-21T21:12:53.565Z,99.90
2022-08-21T21:18:16.755Z,99.90
2022-08-21T21:20:45.869Z,99.90
2022-08-21T21:23:31.740Z,99.90
2022-08-21T21:26:06.358Z,99.90
2022-08-21T21:28:43.029Z,99.90
2022-08-21T21:31:10.828Z,99.90
2022-08-21T21:33:39.654Z,99.90
2022-08-21T21:36:26.742Z,99.90
2022-08-21T21:39:08.569Z,99.90
2022-08-21T21:41:37.873Z,99.90
2022-08-21T21:44:09.715Z,99.90
2022-08-21T21:47:01.003Z,99.90
2022-08-21T21:49:49.501Z,99.90
2022-08-21T21:52:16.842Z,99.90
2022-08-21T21:54:51.966Z,99.90
2022-08-21T21:57:21.824Z,99.90
2022-08-21T21:59:59.358Z,99.90
2022-08-21T22:02:47.862Z,99.90
2022-08-21T22:05:33.510Z,99.90
2022-08-21T22:08:08.155Z,99.90
2022-08-21T22:10:43.233Z,99.90
2022-08-21T22:13:26.138Z,99.90
2022-08-21T22:15:54.535Z,99.90
2022-08-21T22:18:25.799Z,99.90
2022-08-21T22:20:55.649Z,99.90
2022-08-21T22:23:28.065Z,99.90
2022-08-21T22:25:58.937Z,99.90
2022-08-21T22:28:27.066Z,99.90
2022-08-21T22:30:56.582Z,99.90
2022-08-21T22:33:25.098Z,99.90
2022-08-21T22:35:56.976Z,99.90
2022-08-21T22:38:26.936Z,99.90
2022-08-21T22:41:09.567Z,99.90
2022-08-21T22:43:36.834Z,99.90
2022-08-21T22:46:06.578Z,99.90
2022-08-21T22:48:38.718Z,99.90
2022-08-21T22:51:30.085Z,99.90
2022-08-21T22:54:00.219Z,99.90
2022-08-21T22:56:36.859Z,99.90
2022-08-21T22:59:27.808Z,99.90
2022-08-21T23:01:59.661Z,99.90
2022-08-21T23:04:26.995Z,99.90
2022-08-21T23:06:58.354Z,99.90
2022-08-21T23:09:31.343Z,99.90
2022-08-21T23:14:54.878Z,99.90
2022-08-21T23:17:31.453Z,99.90
2022-08-21T23:20:00.195Z,99.90
2022-08-21T23:22:30.212Z,99.90
2022-08-21T23:25:08.235Z,99.90
2022-08-21T23:27:56.485Z,99.90
2022-08-21T23:30:31.071Z,99.90
2022-08-21T23:33:27.166Z,99.90
2022-08-21T23:36:19.815Z,99.90
2022-08-21T23:39:01.255Z,99.90
2022-08-21T23:41:36.850Z,99.90
2022-08-21T23:44:06.825Z,99.90
2022-08-21T23:46:42.619Z,99.90
2022-08-21T23:49:24.367Z,99.90
2022-08-21T23:51:59.440Z,99.90
2022-08-21T23:54:32.008Z,99.90
2022-08-21T23:57:01.414Z,99.90
2022-08-21T23:59:42.984Z,99.90
